sensor_id;sensor_type;location;lat;lon;timestamp;P1;durP1;ratioP1;P2;durP2;ratioP2
21949;SDS011;11139;51.284;7.226;2024-03-07T00:00:21;44.45;;;24.48;;
21949;SDS011;11139;51.284;7.226;2024-03-07T00:02:47;40.55;;;22.80;;
21949;SDS011;11139;51.284;7.226;2024-03-07T00:05:15;46.35;;;23.58;;
21949;SDS011;11139;51.284;7.226;2024-03-07T00:07:41;42.70;;;23.42;;
21949;SDS011;11139;51.284;7.226;2024-03-07T00:10:08;45.50;;;23.42;;
21949;SDS011;11139;51.284;7.226;2024-03-07T00:12:34;50.15;;;25.05;;
21949;SDS011;11139;51.284;7.226;2024-03-07T00:15:02;48.63;;;25.98;;
21949;SDS011;11139;51.284;7.226;2024-03-07T00:17:28;44.40;;;23.98;;
21949;SDS011;11139;51.284;7.226;2024-03-07T00:19:54;41.08;;;23.48;;
21949;SDS011;11139;51.284;7.226;2024-03-07T00:22:19;39.92;;;23.40;;
21949;SDS011;11139;51.284;7.226;2024-03-07T00:24:45;44.33;;;24.95;;
21949;SDS011;11139;51.284;7.226;2024-03-07T00:27:12;42.28;;;23.75;;
21949;SDS011;11139;51.284;7.226;2024-03-07T00:29:39;41.90;;;24.10;;
21949;SDS011;11139;51.284;7.226;2024-03-07T00:32:05;41.38;;;22.90;;
21949;SDS011;11139;51.284;7.226;2024-03-07T00:34:32;42.53;;;24.02;;
21949;SDS011;11139;51.284;7.226;2024-03-07T00:36:58;41.72;;;24.25;;
21949;SDS011;11139;51.284;7.226;2024-03-07T00:39:24;40.72;;;23.80;;
21949;SDS011;11139;51.284;7.226;2024-03-07T00:41:50;41.20;;;23.27;;
21949;SDS011;11139;51.284;7.226;2024-03-07T00:44:16;38.05;;;21.40;;
21949;SDS011;11139;51.284;7.226;2024-03-07T00:46:42;37.63;;;22.95;;
21949;SDS011;11139;51.284;7.226;2024-03-07T00:49:07;42.63;;;23.98;;
21949;SDS011;11139;51.284;7.226;2024-03-07T00:51:34;38.15;;;22.42;;
21949;SDS011;11139;51.284;7.226;2024-03-07T00:54:00;43.10;;;23.63;;
21949;SDS011;11139;51.284;7.226;2024-03-07T00:56:26;36.97;;;21.60;;
21949;SDS011;11139;51.284;7.226;2024-03-07T00:58:52;36.72;;;21.83;;
21949;SDS011;11139;51.284;7.226;2024-03-07T01:01:17;36.80;;;22.60;;
21949;SDS011;11139;51.284;7.226;2024-03-07T01:03:46;34.22;;;21.35;;
21949;SDS011;11139;51.284;7.226;2024-03-07T01:06:12;40.05;;;22.05;;
21949;SDS011;11139;51.284;7.226;2024-03-07T01:08:38;33.92;;;20.38;;
21949;SDS011;11139;51.284;7.226;2024-03-07T01:11:04;37.20;;;21.17;;
21949;SDS011;11139;51.284;7.226;2024-03-07T01:13:43;34.05;;;21.52;;
21949;SDS011;11139;51.284;7.226;2024-03-07T01:16:09;37.65;;;21.80;;
21949;SDS011;11139;51.284;7.226;2024-03-07T01:18:35;34.80;;;22.00;;
21949;SDS011;11139;51.284;7.226;2024-03-07T01:21:01;33.28;;;21.17;;
21949;SDS011;11139;51.284;7.226;2024-03-07T01:23:27;32.00;;;20.15;;
21949;SDS011;11139;51.284;7.226;2024-03-07T01:25:54;34.85;;;20.60;;
21949;SDS011;11139;51.284;7.226;2024-03-07T01:28:21;31.15;;;19.80;;
21949;SDS011;11139;51.284;7.226;2024-03-07T01:30:48;35.42;;;20.77;;
21949;SDS011;11139;51.284;7.226;2024-03-07T01:33:15;32.35;;;21.10;;
21949;SDS011;11139;51.284;7.226;2024-03-07T01:35:40;29.33;;;18.98;;
21949;SDS011;11139;51.284;7.226;2024-03-07T01:38:06;32.63;;;21.30;;
21949;SDS011;11139;51.284;7.226;2024-03-07T01:40:33;32.83;;;20.33;;
21949;SDS011;11139;51.284;7.226;2024-03-07T01:43:01;34.08;;;20.88;;
21949;SDS011;11139;51.284;7.226;2024-03-07T01:45:27;33.67;;;21.20;;
21949;SDS011;11139;51.284;7.226;2024-03-07T01:47:52;33.50;;;20.70;;
21949;SDS011;11139;51.284;7.226;2024-03-07T01:50:18;33.90;;;20.27;;
21949;SDS011;11139;51.284;7.226;2024-03-07T01:52:44;33.00;;;18.73;;
21949;SDS011;11139;51.284;7.226;2024-03-07T01:55:10;35.13;;;21.45;;
21949;SDS011;11139;51.284;7.226;2024-03-07T01:57:38;32.05;;;20.10;;
21949;SDS011;11139;51.284;7.226;2024-03-07T02:00:04;32.40;;;20.33;;
21949;SDS011;11139;51.284;7.226;2024-03-07T02:02:32;30.85;;;19.48;;
21949;SDS011;11139;51.284;7.226;2024-03-07T02:04:58;31.55;;;20.30;;
21949;SDS011;11139;51.284;7.226;2024-03-07T02:07:24;32.33;;;20.00;;
21949;SDS011;11139;51.284;7.226;2024-03-07T02:09:58;32.35;;;19.20;;
21949;SDS011;11139;51.284;7.226;2024-03-07T02:12:30;29.13;;;18.70;;
21949;SDS011;11139;51.284;7.226;2024-03-07T02:14:57;29.88;;;18.33;;
21949;SDS011;11139;51.284;7.226;2024-03-07T02:17:26;29.08;;;18.33;;
21949;SDS011;11139;51.284;7.226;2024-03-07T02:19:52;29.83;;;18.52;;
21949;SDS011;11139;51.284;7.226;2024-03-07T02:22:18;30.00;;;18.52;;
21949;SDS011;11139;51.284;7.226;2024-03-07T02:24:44;29.48;;;19.30;;
21949;SDS011;11139;51.284;7.226;2024-03-07T02:27:11;28.75;;;18.27;;
21949;SDS011;11139;51.284;7.226;2024-03-07T02:29:37;29.02;;;18.45;;
21949;SDS011;11139;51.284;7.226;2024-03-07T02:32:03;28.17;;;17.90;;
21949;SDS011;11139;51.284;7.226;2024-03-07T02:34:29;27.67;;;18.17;;
21949;SDS011;11139;51.284;7.226;2024-03-07T02:36:55;28.30;;;18.35;;
21949;SDS011;11139;51.284;7.226;2024-03-07T02:39:20;28.45;;;19.58;;
21949;SDS011;11139;51.284;7.226;2024-03-07T02:41:47;29.85;;;18.92;;
21949;SDS011;11139;51.284;7.226;2024-03-07T02:44:15;29.50;;;17.77;;
21949;SDS011;11139;51.284;7.226;2024-03-07T02:46:41;30.08;;;18.42;;
21949;SDS011;11139;51.284;7.226;2024-03-07T02:49:07;27.92;;;17.88;;
21949;SDS011;11139;51.284;7.226;2024-03-07T02:51:34;27.80;;;18.33;;
21949;SDS011;11139;51.284;7.226;2024-03-07T02:54:00;26.02;;;18.15;;
21949;SDS011;11139;51.284;7.226;2024-03-07T02:56:26;26.98;;;16.90;;
21949;SDS011;11139;51.284;7.226;2024-03-07T02:58:52;25.90;;;17.42;;
21949;SDS011;11139;51.284;7.226;2024-03-07T03:01:17;27.63;;;18.02;;
21949;SDS011;11139;51.284;7.226;2024-03-07T03:03:43;29.50;;;18.00;;
21949;SDS011;11139;51.284;7.226;2024-03-07T03:06:09;27.50;;;17.10;;
21949;SDS011;11139;51.284;7.226;2024-03-07T03:08:36;28.02;;;18.48;;
21949;SDS011;11139;51.284;7.226;2024-03-07T03:11:02;28.77;;;18.27;;
21949;SDS011;11139;51.284;7.226;2024-03-07T03:13:28;25.13;;;17.17;;
21949;SDS011;11139;51.284;7.226;2024-03-07T03:15:54;26.95;;;17.63;;
21949;SDS011;11139;51.284;7.226;2024-03-07T03:18:21;27.80;;;18.45;;
21949;SDS011;11139;51.284;7.226;2024-03-07T03:20:47;29.60;;;18.40;;
21949;SDS011;11139;51.284;7.226;2024-03-07T03:23:13;27.60;;;17.65;;
21949;SDS011;11139;51.284;7.226;2024-03-07T03:25:39;27.48;;;17.58;;
21949;SDS011;11139;51.284;7.226;2024-03-07T03:28:06;26.98;;;17.58;;
21949;SDS011;11139;51.284;7.226;2024-03-07T03:30:36;24.25;;;16.33;;
21949;SDS011;11139;51.284;7.226;2024-03-07T03:33:09;28.67;;;19.05;;
21949;SDS011;11139;51.284;7.226;2024-03-07T03:35:35;26.38;;;16.80;;
21949;SDS011;11139;51.284;7.226;2024-03-07T03:38:02;26.52;;;16.42;;
21949;SDS011;11139;51.284;7.226;2024-03-07T03:40:28;24.05;;;16.40;;
21949;SDS011;11139;51.284;7.226;2024-03-07T03:42:53;27.45;;;17.40;;
21949;SDS011;11139;51.284;7.226;2024-03-07T03:45:20;27.25;;;17.85;;
21949;SDS011;11139;51.284;7.226;2024-03-07T03:47:45;25.67;;;17.23;;
21949;SDS011;11139;51.284;7.226;2024-03-07T03:50:12;24.77;;;16.67;;
21949;SDS011;11139;51.284;7.226;2024-03-07T03:52:38;26.83;;;17.98;;
21949;SDS011;11139;51.284;7.226;2024-03-07T03:55:05;28.90;;;17.70;;
21949;SDS011;11139;51.284;7.226;2024-03-07T03:57:31;28.02;;;16.60;;
21949;SDS011;11139;51.284;7.226;2024-03-07T03:59:58;27.02;;;18.63;;
21949;SDS011;11139;51.284;7.226;2024-03-07T04:02:24;26.83;;;16.83;;
21949;SDS011;11139;51.284;7.226;2024-03-07T04:04:50;25.63;;;17.10;;
21949;SDS011;11139;51.284;7.226;2024-03-07T04:07:17;28.63;;;17.58;;
21949;SDS011;11139;51.284;7.226;2024-03-07T04:09:46;26.35;;;17.42;;
21949;SDS011;11139;51.284;7.226;2024-03-07T04:12:13;29.10;;;18.42;;
21949;SDS011;11139;51.284;7.226;2024-03-07T04:14:40;27.50;;;18.70;;
21949;SDS011;11139;51.284;7.226;2024-03-07T04:17:09;29.00;;;16.15;;
21949;SDS011;11139;51.284;7.226;2024-03-07T04:19:42;24.27;;;15.98;;
21949;SDS011;11139;51.284;7.226;2024-03-07T04:22:08;24.92;;;16.33;;
21949;SDS011;11139;51.284;7.226;2024-03-07T04:24:37;25.23;;;16.42;;
21949;SDS011;11139;51.284;7.226;2024-03-07T04:27:03;27.40;;;16.85;;
21949;SDS011;11139;51.284;7.226;2024-03-07T04:29:30;25.35;;;16.05;;
21949;SDS011;11139;51.284;7.226;2024-03-07T04:31:57;26.50;;;16.90;;
21949;SDS011;11139;51.284;7.226;2024-03-07T04:34:23;26.45;;;16.10;;
21949;SDS011;11139;51.284;7.226;2024-03-07T04:36:48;27.08;;;16.88;;
21949;SDS011;11139;51.284;7.226;2024-03-07T04:39:14;29.45;;;16.77;;
21949;SDS011;11139;51.284;7.226;2024-03-07T04:41:50;27.40;;;17.55;;
21949;SDS011;11139;51.284;7.226;2024-03-07T04:44:19;26.08;;;15.80;;
21949;SDS011;11139;51.284;7.226;2024-03-07T04:46:49;26.27;;;16.33;;
21949;SDS011;11139;51.284;7.226;2024-03-07T04:49:35;26.33;;;17.23;;
21949;SDS011;11139;51.284;7.226;2024-03-07T04:52:01;24.23;;;16.60;;
21949;SDS011;11139;51.284;7.226;2024-03-07T04:54:28;25.02;;;16.25;;
21949;SDS011;11139;51.284;7.226;2024-03-07T04:56:55;24.50;;;16.77;;
21949;SDS011;11139;51.284;7.226;2024-03-07T04:59:21;23.75;;;15.55;;
21949;SDS011;11139;51.284;7.226;2024-03-07T05:01:47;28.63;;;16.90;;
21949;SDS011;11139;51.284;7.226;2024-03-07T05:04:17;27.65;;;17.35;;
21949;SDS011;11139;51.284;7.226;2024-03-07T05:06:43;26.85;;;17.42;;
21949;SDS011;11139;51.284;7.226;2024-03-07T05:09:10;28.48;;;17.63;;
21949;SDS011;11139;51.284;7.226;2024-03-07T05:11:48;26.88;;;17.92;;
21949;SDS011;11139;51.284;7.226;2024-03-07T05:14:15;28.73;;;17.52;;
21949;SDS011;11139;51.284;7.226;2024-03-07T05:16:41;27.80;;;16.63;;
21949;SDS011;11139;51.284;7.226;2024-03-07T05:19:08;29.42;;;16.98;;
21949;SDS011;11139;51.284;7.226;2024-03-07T05:21:34;28.48;;;17.33;;
21949;SDS011;11139;51.284;7.226;2024-03-07T05:24:04;28.52;;;16.65;;
21949;SDS011;11139;51.284;7.226;2024-03-07T05:26:33;29.15;;;18.42;;
21949;SDS011;11139;51.284;7.226;2024-03-07T05:31:35;24.42;;;15.43;;
21949;SDS011;11139;51.284;7.226;2024-03-07T05:34:02;26.25;;;15.95;;
21949;SDS011;11139;51.284;7.226;2024-03-07T05:36:29;25.85;;;16.20;;
21949;SDS011;11139;51.284;7.226;2024-03-07T05:38:55;25.15;;;15.93;;
21949;SDS011;11139;51.284;7.226;2024-03-07T05:41:21;25.60;;;16.38;;
21949;SDS011;11139;51.284;7.226;2024-03-07T05:43:47;25.48;;;15.85;;
21949;SDS011;11139;51.284;7.226;2024-03-07T05:46:13;26.13;;;15.90;;
21949;SDS011;11139;51.284;7.226;2024-03-07T05:48:38;27.40;;;17.50;;
21949;SDS011;11139;51.284;7.226;2024-03-07T05:51:04;23.63;;;16.38;;
21949;SDS011;11139;51.284;7.226;2024-03-07T05:53:30;26.38;;;16.23;;
21949;SDS011;11139;51.284;7.226;2024-03-07T05:55:55;22.20;;;15.82;;
21949;SDS011;11139;51.284;7.226;2024-03-07T05:58:21;26.00;;;16.92;;
21949;SDS011;11139;51.284;7.226;2024-03-07T06:00:47;22.23;;;14.90;;
21949;SDS011;11139;51.284;7.226;2024-03-07T06:03:18;26.17;;;16.10;;
21949;SDS011;11139;51.284;7.226;2024-03-07T06:05:48;26.98;;;16.33;;
21949;SDS011;11139;51.284;7.226;2024-03-07T06:08:15;24.60;;;15.10;;
21949;SDS011;11139;51.284;7.226;2024-03-07T06:10:45;24.58;;;15.68;;
21949;SDS011;11139;51.284;7.226;2024-03-07T06:13:14;24.83;;;16.58;;
21949;SDS011;11139;51.284;7.226;2024-03-07T06:15:44;24.55;;;16.73;;
21949;SDS011;11139;51.284;7.226;2024-03-07T06:18:11;24.20;;;15.85;;
21949;SDS011;11139;51.284;7.226;2024-03-07T06:20:39;27.15;;;17.33;;
21949;SDS011;11139;51.284;7.226;2024-03-07T06:23:06;26.10;;;15.55;;
21949;SDS011;11139;51.284;7.226;2024-03-07T06:25:32;26.05;;;15.95;;
21949;SDS011;11139;51.284;7.226;2024-03-07T06:28:15;22.65;;;15.70;;
21949;SDS011;11139;51.284;7.226;2024-03-07T06:30:43;24.13;;;16.10;;
21949;SDS011;11139;51.284;7.226;2024-03-07T06:33:13;23.63;;;15.02;;
21949;SDS011;11139;51.284;7.226;2024-03-07T06:35:39;27.23;;;16.73;;
21949;SDS011;11139;51.284;7.226;2024-03-07T06:38:06;24.58;;;15.38;;
21949;SDS011;11139;51.284;7.226;2024-03-07T06:40:33;23.33;;;15.52;;
21949;SDS011;11139;51.284;7.226;2024-03-07T06:42:59;24.38;;;15.32;;
21949;SDS011;11139;51.284;7.226;2024-03-07T06:45:25;22.77;;;15.65;;
21949;SDS011;11139;51.284;7.226;2024-03-07T06:47:51;23.38;;;16.00;;
21949;SDS011;11139;51.284;7.226;2024-03-07T06:50:19;24.13;;;16.25;;
21949;SDS011;11139;51.284;7.226;2024-03-07T06:52:46;26.55;;;16.35;;
21949;SDS011;11139;51.284;7.226;2024-03-07T06:55:13;23.95;;;16.02;;
21949;SDS011;11139;51.284;7.226;2024-03-07T06:57:43;23.73;;;16.00;;
21949;SDS011;11139;51.284;7.226;2024-03-07T07:00:13;24.08;;;15.40;;
21949;SDS011;11139;51.284;7.226;2024-03-07T07:05:11;23.40;;;14.63;;
21949;SDS011;11139;51.284;7.226;2024-03-07T07:07:37;24.65;;;16.27;;
21949;SDS011;11139;51.284;7.226;2024-03-07T07:10:04;24.05;;;15.93;;
21949;SDS011;11139;51.284;7.226;2024-03-07T07:12:33;24.52;;;16.10;;
21949;SDS011;11139;51.284;7.226;2024-03-07T07:15:00;26.00;;;15.80;;
21949;SDS011;11139;51.284;7.226;2024-03-07T07:17:25;25.50;;;16.55;;
21949;SDS011;11139;51.284;7.226;2024-03-07T07:19:54;25.58;;;16.25;;
21949;SDS011;11139;51.284;7.226;2024-03-07T07:22:24;24.25;;;16.50;;
21949;SDS011;11139;51.284;7.226;2024-03-07T07:24:50;24.17;;;14.68;;
21949;SDS011;11139;51.284;7.226;2024-03-07T07:27:15;23.88;;;15.48;;
21949;SDS011;11139;51.284;7.226;2024-03-07T07:29:41;22.73;;;15.70;;
21949;SDS011;11139;51.284;7.226;2024-03-07T07:32:07;22.38;;;15.80;;
21949;SDS011;11139;51.284;7.226;2024-03-07T07:34:33;22.40;;;14.73;;
21949;SDS011;11139;51.284;7.226;2024-03-07T07:36:59;24.77;;;16.05;;
21949;SDS011;11139;51.284;7.226;2024-03-07T07:39:24;22.60;;;15.32;;
21949;SDS011;11139;51.284;7.226;2024-03-07T07:41:50;25.48;;;16.15;;
21949;SDS011;11139;51.284;7.226;2024-03-07T07:44:16;23.73;;;14.82;;
21949;SDS011;11139;51.284;7.226;2024-03-07T07:46:42;22.83;;;15.75;;
21949;SDS011;11139;51.284;7.226;2024-03-07T07:49:08;23.23;;;15.85;;
21949;SDS011;11139;51.284;7.226;2024-03-07T07:51:34;23.75;;;14.88;;
21949;SDS011;11139;51.284;7.226;2024-03-07T07:54:00;23.50;;;15.73;;
21949;SDS011;11139;51.284;7.226;2024-03-07T07:56:25;24.60;;;15.02;;
21949;SDS011;11139;51.284;7.226;2024-03-07T07:58:53;23.92;;;14.98;;
21949;SDS011;11139;51.284;7.226;2024-03-07T08:01:19;24.60;;;16.05;;
21949;SDS011;11139;51.284;7.226;2024-03-07T08:03:45;23.20;;;15.43;;
21949;SDS011;11139;51.284;7.226;2024-03-07T08:06:10;24.60;;;14.43;;
21949;SDS011;11139;51.284;7.226;2024-03-07T08:08:36;21.73;;;15.57;;
21949;SDS011;11139;51.284;7.226;2024-03-07T08:11:02;24.63;;;15.82;;
21949;SDS011;11139;51.284;7.226;2024-03-07T08:13:28;22.90;;;15.68;;
21949;SDS011;11139;51.284;7.226;2024-03-07T08:15:54;23.60;;;15.40;;
21949;SDS011;11139;51.284;7.226;2024-03-07T08:18:20;20.70;;;14.48;;
21949;SDS011;11139;51.284;7.226;2024-03-07T08:20:46;29.80;;;17.17;;
21949;SDS011;11139;51.284;7.226;2024-03-07T08:23:11;19.73;;;13.75;;
21949;SDS011;11139;51.284;7.226;2024-03-07T08:25:40;25.55;;;15.13;;
21949;SDS011;11139;51.284;7.226;2024-03-07T08:28:06;23.83;;;15.00;;
21949;SDS011;11139;51.284;7.226;2024-03-07T08:30:32;23.50;;;14.80;;
21949;SDS011;11139;51.284;7.226;2024-03-07T08:33:00;25.80;;;15.65;;
21949;SDS011;11139;51.284;7.226;2024-03-07T08:35:29;22.02;;;14.90;;
21949;SDS011;11139;51.284;7.226;2024-03-07T08:37:55;24.80;;;15.30;;
21949;SDS011;11139;51.284;7.226;2024-03-07T08:40:23;28.83;;;15.70;;
21949;SDS011;11139;51.284;7.226;2024-03-07T08:42:56;23.30;;;15.35;;
21949;SDS011;11139;51.284;7.226;2024-03-07T08:45:22;27.92;;;16.02;;
21949;SDS011;11139;51.284;7.226;2024-03-07T08:47:49;24.85;;;16.00;;
21949;SDS011;11139;51.284;7.226;2024-03-07T08:50:16;24.70;;;15.45;;
21949;SDS011;11139;51.284;7.226;2024-03-07T08:52:45;25.42;;;14.90;;
21949;SDS011;11139;51.284;7.226;2024-03-07T08:55:13;25.70;;;15.38;;
21949;SDS011;11139;51.284;7.226;2024-03-07T08:57:40;25.25;;;16.08;;
21949;SDS011;11139;51.284;7.226;2024-03-07T09:00:07;29.75;;;16.05;;
21949;SDS011;11139;51.284;7.226;2024-03-07T09:02:34;30.98;;;17.10;;
21949;SDS011;11139;51.284;7.226;2024-03-07T09:05:04;26.88;;;15.50;;
21949;SDS011;11139;51.284;7.226;2024-03-07T09:07:31;24.10;;;15.20;;
21949;SDS011;11139;51.284;7.226;2024-03-07T09:09:57;22.25;;;14.40;;
21949;SDS011;11139;51.284;7.226;2024-03-07T09:12:23;24.98;;;14.82;;
21949;SDS011;11139;51.284;7.226;2024-03-07T09:14:51;23.08;;;14.40;;
21949;SDS011;11139;51.284;7.226;2024-03-07T09:17:17;27.30;;;16.25;;
21949;SDS011;11139;51.284;7.226;2024-03-07T09:19:43;24.08;;;15.45;;
21949;SDS011;11139;51.284;7.226;2024-03-07T09:22:09;26.20;;;16.88;;
21949;SDS011;11139;51.284;7.226;2024-03-07T09:24:35;26.33;;;15.95;;
21949;SDS011;11139;51.284;7.226;2024-03-07T09:27:02;22.83;;;14.73;;
21949;SDS011;11139;51.284;7.226;2024-03-07T09:29:29;23.92;;;14.90;;
21949;SDS011;11139;51.284;7.226;2024-03-07T09:31:55;26.40;;;14.80;;
21949;SDS011;11139;51.284;7.226;2024-03-07T09:37:02;26.10;;;15.68;;
21949;SDS011;11139;51.284;7.226;2024-03-07T09:39:28;25.60;;;14.70;;
21949;SDS011;11139;51.284;7.226;2024-03-07T09:41:56;22.77;;;14.43;;
21949;SDS011;11139;51.284;7.226;2024-03-07T09:44:26;26.67;;;15.15;;
21949;SDS011;11139;51.284;7.226;2024-03-07T09:46:54;26.05;;;16.20;;
21949;SDS011;11139;51.284;7.226;2024-03-07T09:49:21;26.02;;;15.70;;
21949;SDS011;11139;51.284;7.226;2024-03-07T09:51:47;26.88;;;15.65;;
21949;SDS011;11139;51.284;7.226;2024-03-07T09:54:20;25.15;;;15.90;;
21949;SDS011;11139;51.284;7.226;2024-03-07T09:56:49;25.30;;;15.13;;
21949;SDS011;11139;51.284;7.226;2024-03-07T09:59:19;24.45;;;14.95;;
21949;SDS011;11139;51.284;7.226;2024-03-07T10:01:49;26.70;;;15.75;;
21949;SDS011;11139;51.284;7.226;2024-03-07T10:04:16;24.25;;;14.52;;
21949;SDS011;11139;51.284;7.226;2024-03-07T10:07:02;24.33;;;14.45;;
21949;SDS011;11139;51.284;7.226;2024-03-07T10:09:28;25.17;;;15.52;;
21949;SDS011;11139;51.284;7.226;2024-03-07T10:11:57;22.52;;;13.80;;
21949;SDS011;11139;51.284;7.226;2024-03-07T10:14:23;28.23;;;14.85;;
21949;SDS011;11139;51.284;7.226;2024-03-07T10:16:49;22.75;;;14.43;;
21949;SDS011;11139;51.284;7.226;2024-03-07T10:19:14;28.50;;;16.13;;
21949;SDS011;11139;51.284;7.226;2024-03-07T10:21:40;23.77;;;14.90;;
21949;SDS011;11139;51.284;7.226;2024-03-07T10:24:06;23.15;;;14.70;;
21949;SDS011;11139;51.284;7.226;2024-03-07T10:26:37;27.30;;;15.02;;
21949;SDS011;11139;51.284;7.226;2024-03-07T10:29:03;24.38;;;14.48;;
21949;SDS011;11139;51.284;7.226;2024-03-07T10:31:35;26.15;;;15.55;;
21949;SDS011;11139;51.284;7.226;2024-03-07T10:34:02;22.63;;;14.90;;
21949;SDS011;11139;51.284;7.226;2024-03-07T10:36:29;25.42;;;14.00;;
21949;SDS011;11139;51.284;7.226;2024-03-07T10:38:58;24.85;;;14.32;;
21949;SDS011;11139;51.284;7.226;2024-03-07T10:41:42;25.27;;;14.75;;
21949;SDS011;11139;51.284;7.226;2024-03-07T10:44:13;32.05;;;15.77;;
21949;SDS011;11139;51.284;7.226;2024-03-07T10:46:51;27.13;;;15.25;;
21949;SDS011;11139;51.284;7.226;2024-03-07T10:49:18;24.85;;;14.52;;
21949;SDS011;11139;51.284;7.226;2024-03-07T10:51:48;23.40;;;15.10;;
21949;SDS011;11139;51.284;7.226;2024-03-07T10:54:34;27.73;;;14.05;;
21949;SDS011;11139;51.284;7.226;2024-03-07T11:00:06;21.10;;;13.02;;
21949;SDS011;11139;51.284;7.226;2024-03-07T11:02:55;23.08;;;14.85;;
21949;SDS011;11139;51.284;7.226;2024-03-07T11:05:21;26.88;;;14.70;;
21949;SDS011;11139;51.284;7.226;2024-03-07T11:07:51;23.75;;;14.20;;
21949;SDS011;11139;51.284;7.226;2024-03-07T11:10:17;24.17;;;13.35;;
21949;SDS011;11139;51.284;7.226;2024-03-07T11:12:45;23.95;;;14.15;;
21949;SDS011;11139;51.284;7.226;2024-03-07T11:15:16;21.55;;;13.93;;
21949;SDS011;11139;51.284;7.226;2024-03-07T11:17:45;22.83;;;14.00;;
21949;SDS011;11139;51.284;7.226;2024-03-07T11:26:09;22.02;;;13.75;;
21949;SDS011;11139;51.284;7.226;2024-03-07T11:28:37;28.25;;;14.65;;
21949;SDS011;11139;51.284;7.226;2024-03-07T11:31:45;21.77;;;14.88;;
21949;SDS011;11139;51.284;7.226;2024-03-07T11:36:44;24.73;;;13.70;;
21949;SDS011;11139;51.284;7.226;2024-03-07T11:42:07;22.60;;;13.70;;
21949;SDS011;11139;51.284;7.226;2024-03-07T11:44:58;24.15;;;14.57;;
21949;SDS011;11139;51.284;7.226;2024-03-07T11:47:34;25.67;;;14.23;;
21949;SDS011;11139;51.284;7.226;2024-03-07T11:50:07;19.67;;;12.15;;
21949;SDS011;11139;51.284;7.226;2024-03-07T11:52:39;23.05;;;13.70;;
21949;SDS011;11139;51.284;7.226;2024-03-07T11:55:09;22.63;;;13.98;;
21949;SDS011;11139;51.284;7.226;2024-03-07T11:57:35;20.48;;;12.05;;
21949;SDS011;11139;51.284;7.226;2024-03-07T12:00:02;19.48;;;13.23;;
21949;SDS011;11139;51.284;7.226;2024-03-07T12:02:38;22.52;;;13.32;;
21949;SDS011;11139;51.284;7.226;2024-03-07T12:05:07;21.45;;;13.02;;
21949;SDS011;11139;51.284;7.226;2024-03-07T12:07:33;15.88;;;10.13;;
21949;SDS011;11139;51.284;7.226;2024-03-07T12:09:59;18.05;;;11.63;;
21949;SDS011;11139;51.284;7.226;2024-03-07T12:12:28;17.52;;;11.13;;
21949;SDS011;11139;51.284;7.226;2024-03-07T12:14:54;17.00;;;10.88;;
21949;SDS011;11139;51.284;7.226;2024-03-07T12:17:20;19.10;;;11.73;;
21949;SDS011;11139;51.284;7.226;2024-03-07T12:19:47;20.77;;;11.07;;
21949;SDS011;11139;51.284;7.226;2024-03-07T12:22:18;19.83;;;12.20;;
21949;SDS011;11139;51.284;7.226;2024-03-07T12:24:48;18.40;;;11.25;;
21949;SDS011;11139;51.284;7.226;2024-03-07T12:27:27;18.88;;;11.55;;
21949;SDS011;11139;51.284;7.226;2024-03-07T12:29:53;18.10;;;11.30;;
21949;SDS011;11139;51.284;7.226;2024-03-07T12:32:19;17.25;;;11.23;;
21949;SDS011;11139;51.284;7.226;2024-03-07T12:34:46;18.15;;;10.63;;
21949;SDS011;11139;51.284;7.226;2024-03-07T12:37:14;18.08;;;11.75;;
21949;SDS011;11139;51.284;7.226;2024-03-07T12:39:41;18.55;;;11.40;;
21949;SDS011;11139;51.284;7.226;2024-03-07T12:42:12;19.75;;;11.82;;
21949;SDS011;11139;51.284;7.226;2024-03-07T12:44:46;18.42;;;11.98;;
21949;SDS011;11139;51.284;7.226;2024-03-07T12:47:15;23.55;;;12.23;;
21949;SDS011;11139;51.284;7.226;2024-03-07T12:49:42;18.65;;;11.55;;
21949;SDS011;11139;51.284;7.226;2024-03-07T12:52:08;17.67;;;11.48;;
21949;SDS011;11139;51.284;7.226;2024-03-07T12:54:37;22.67;;;12.85;;
21949;SDS011;11139;51.284;7.226;2024-03-07T12:57:09;21.02;;;13.05;;
21949;SDS011;11139;51.284;7.226;2024-03-07T12:59:36;20.85;;;12.65;;
21949;SDS011;11139;51.284;7.226;2024-03-07T13:02:05;18.88;;;11.85;;
21949;SDS011;11139;51.284;7.226;2024-03-07T13:04:37;19.00;;;12.45;;
21949;SDS011;11139;51.284;7.226;2024-03-07T13:07:06;19.30;;;12.50;;
21949;SDS011;11139;51.284;7.226;2024-03-07T13:09:35;19.98;;;11.82;;
21949;SDS011;11139;51.284;7.226;2024-03-07T13:12:02;20.77;;;12.50;;
21949;SDS011;11139;51.284;7.226;2024-03-07T13:14:32;18.50;;;11.80;;
21949;SDS011;11139;51.284;7.226;2024-03-07T13:16:58;20.23;;;12.73;;
21949;SDS011;11139;51.284;7.226;2024-03-07T13:19:26;19.98;;;12.15;;
21949;SDS011;11139;51.284;7.226;2024-03-07T13:21:54;18.17;;;12.30;;
21949;SDS011;11139;51.284;7.226;2024-03-07T13:24:24;20.52;;;12.13;;
21949;SDS011;11139;51.284;7.226;2024-03-07T13:26:51;22.05;;;13.05;;
21949;SDS011;11139;51.284;7.226;2024-03-07T13:29:18;22.27;;;13.02;;
21949;SDS011;11139;51.284;7.226;2024-03-07T13:31:49;18.42;;;12.93;;
21949;SDS011;11139;51.284;7.226;2024-03-07T13:34:16;20.20;;;12.35;;
21949;SDS011;11139;51.284;7.226;2024-03-07T13:36:42;18.58;;;12.25;;
21949;SDS011;11139;51.284;7.226;2024-03-07T13:39:08;19.83;;;13.00;;
21949;SDS011;11139;51.284;7.226;2024-03-07T13:41:39;20.45;;;12.50;;
21949;SDS011;11139;51.284;7.226;2024-03-07T13:44:09;18.98;;;11.45;;
21949;SDS011;11139;51.284;7.226;2024-03-07T13:46:36;18.25;;;11.35;;
21949;SDS011;11139;51.284;7.226;2024-03-07T13:49:02;20.85;;;12.35;;
21949;SDS011;11139;51.284;7.226;2024-03-07T13:51:38;18.05;;;11.63;;
21949;SDS011;11139;51.284;7.226;2024-03-07T13:54:14;18.25;;;11.35;;
21949;SDS011;11139;51.284;7.226;2024-03-07T14:02:59;14.05;;;9.27;;
21949;SDS011;11139;51.284;7.226;2024-03-07T14:05:58;18.40;;;10.07;;
21949;SDS011;11139;51.284;7.226;2024-03-07T14:14:30;14.77;;;8.68;;
21949;SDS011;11139;51.284;7.226;2024-03-07T14:23:19;12.43;;;8.30;;
21949;SDS011;11139;51.284;7.226;2024-03-07T14:26:16;15.82;;;8.18;;
21949;SDS011;11139;51.284;7.226;2024-03-07T14:31:55;11.23;;;7.20;;
21949;SDS011;11139;51.284;7.226;2024-03-07T14:36:55;13.02;;;7.97;;
21949;SDS011;11139;51.284;7.226;2024-03-07T14:39:27;10.02;;;7.25;;
21949;SDS011;11139;51.284;7.226;2024-03-07T14:41:55;12.48;;;7.80;;
21949;SDS011;11139;51.284;7.226;2024-03-07T14:44:23;13.23;;;7.95;;
21949;SDS011;11139;51.284;7.226;2024-03-07T14:46:52;12.00;;;7.70;;
21949;SDS011;11139;51.284;7.226;2024-03-07T14:49:24;13.13;;;7.95;;
21949;SDS011;11139;51.284;7.226;2024-03-07T14:51:50;12.30;;;7.57;;
21949;SDS011;11139;51.284;7.226;2024-03-07T14:54:19;13.65;;;7.80;;
21949;SDS011;11139;51.284;7.226;2024-03-07T14:56:48;13.05;;;7.75;;
21949;SDS011;11139;51.284;7.226;2024-03-07T14:59:14;11.05;;;7.32;;
21949;SDS011;11139;51.284;7.226;2024-03-07T15:01:40;11.90;;;7.38;;
21949;SDS011;11139;51.284;7.226;2024-03-07T15:04:06;11.65;;;7.43;;
21949;SDS011;11139;51.284;7.226;2024-03-07T15:06:36;12.93;;;7.47;;
21949;SDS011;11139;51.284;7.226;2024-03-07T15:09:02;11.90;;;7.18;;
21949;SDS011;11139;51.284;7.226;2024-03-07T15:11:29;11.45;;;7.68;;
21949;SDS011;11139;51.284;7.226;2024-03-07T15:13:59;13.30;;;7.60;;